sensor_id;sensor_type;location;lat;lon;timestamp;P1;durP1;ratioP1;P2;durP2;ratioP2
5042;SDS011;2540;50.928;6.856;2023-02-07T00:02:24;20.10;;;7.37;;
5042;SDS011;2540;50.928;6.856;2023-02-07T00:04:49;14.87;;;7.27;;
5042;SDS011;2540;50.928;6.856;2023-02-07T00:07:15;16.43;;;7.00;;
5042;SDS011;2540;50.928;6.856;2023-02-07T00:09:40;15.90;;;7.83;;
5042;SDS011;2540;50.928;6.856;2023-02-07T00:12:05;18.60;;;6.30;;
5042;SDS011;2540;50.928;6.856;2023-02-07T00:14:30;17.70;;;7.90;;
5042;SDS011;2540;50.928;6.856;2023-02-07T00:16:55;20.13;;;7.60;;
5042;SDS011;2540;50.928;6.856;2023-02-07T00:19:21;20.63;;;7.23;;
5042;SDS011;2540;50.928;6.856;2023-02-07T00:21:47;15.70;;;7.80;;
5042;SDS011;2540;50.928;6.856;2023-02-07T00:24:12;15.33;;;7.37;;
5042;SDS011;2540;50.928;6.856;2023-02-07T00:26:38;20.13;;;7.60;;
5042;SDS011;2540;50.928;6.856;2023-02-07T00:29:03;18.60;;;7.40;;
5042;SDS011;2540;50.928;6.856;2023-02-07T00:31:29;17.50;;;6.83;;
5042;SDS011;2540;50.928;6.856;2023-02-07T00:33:56;17.27;;;7.33;;
5042;SDS011;2540;50.928;6.856;2023-02-07T00:36:22;13.40;;;6.23;;
5042;SDS011;2540;50.928;6.856;2023-02-07T00:38:48;25.57;;;7.50;;
5042;SDS011;2540;50.928;6.856;2023-02-07T00:41:13;20.33;;;7.10;;
5042;SDS011;2540;50.928;6.856;2023-02-07T00:43:41;20.30;;;7.47;;
5042;SDS011;2540;50.928;6.856;2023-02-07T00:46:07;23.47;;;6.70;;
5042;SDS011;2540;50.928;6.856;2023-02-07T00:48:32;18.03;;;7.80;;
5042;SDS011;2540;50.928;6.856;2023-02-07T00:50:58;21.53;;;7.37;;
5042;SDS011;2540;50.928;6.856;2023-02-07T00:53:24;19.87;;;7.93;;
5042;SDS011;2540;50.928;6.856;2023-02-07T00:55:49;18.00;;;7.40;;
5042;SDS011;2540;50.928;6.856;2023-02-07T00:58:14;13.37;;;6.93;;
5042;SDS011;2540;50.928;6.856;2023-02-07T01:00:40;12.13;;;6.50;;
5042;SDS011;2540;50.928;6.856;2023-02-07T01:03:05;24.10;;;7.53;;
5042;SDS011;2540;50.928;6.856;2023-02-07T01:05:30;16.80;;;7.10;;
5042;SDS011;2540;50.928;6.856;2023-02-07T01:07:55;16.27;;;7.43;;
5042;SDS011;2540;50.928;6.856;2023-02-07T01:10:20;18.23;;;7.20;;
5042;SDS011;2540;50.928;6.856;2023-02-07T01:12:46;17.20;;;7.80;;
5042;SDS011;2540;50.928;6.856;2023-02-07T01:15:12;17.67;;;7.20;;
5042;SDS011;2540;50.928;6.856;2023-02-07T01:17:37;16.33;;;7.40;;
5042;SDS011;2540;50.928;6.856;2023-02-07T01:20:02;14.47;;;7.20;;
5042;SDS011;2540;50.928;6.856;2023-02-07T01:22:27;30.87;;;7.47;;
5042;SDS011;2540;50.928;6.856;2023-02-07T01:24:53;18.73;;;7.77;;
5042;SDS011;2540;50.928;6.856;2023-02-07T01:27:19;16.03;;;7.10;;
5042;SDS011;2540;50.928;6.856;2023-02-07T01:29:44;19.60;;;6.70;;
5042;SDS011;2540;50.928;6.856;2023-02-07T01:32:09;18.70;;;6.90;;
5042;SDS011;2540;50.928;6.856;2023-02-07T01:34:34;15.40;;;7.20;;
5042;SDS011;2540;50.928;6.856;2023-02-07T01:37:00;14.20;;;6.20;;
5042;SDS011;2540;50.928;6.856;2023-02-07T01:39:25;14.43;;;7.13;;
5042;SDS011;2540;50.928;6.856;2023-02-07T01:41:50;22.87;;;8.30;;
5042;SDS011;2540;50.928;6.856;2023-02-07T01:46:46;16.90;;;8.20;;
5042;SDS011;2540;50.928;6.856;2023-02-07T01:49:12;14.80;;;7.43;;
5042;SDS011;2540;50.928;6.856;2023-02-07T01:51:39;15.50;;;7.37;;
5042;SDS011;2540;50.928;6.856;2023-02-07T01:54:06;21.53;;;7.50;;
5042;SDS011;2540;50.928;6.856;2023-02-07T01:56:32;16.60;;;6.77;;
5042;SDS011;2540;50.928;6.856;2023-02-07T01:58:58;15.03;;;7.33;;
5042;SDS011;2540;50.928;6.856;2023-02-07T02:01:24;16.63;;;6.70;;
5042;SDS011;2540;50.928;6.856;2023-02-07T02:03:50;17.87;;;7.37;;
5042;SDS011;2540;50.928;6.856;2023-02-07T02:06:20;15.80;;;7.57;;
5042;SDS011;2540;50.928;6.856;2023-02-07T02:08:46;18.37;;;6.30;;
5042;SDS011;2540;50.928;6.856;2023-02-07T02:16:12;11.30;;;6.57;;
5042;SDS011;2540;50.928;6.856;2023-02-07T02:18:51;16.53;;;6.93;;
5042;SDS011;2540;50.928;6.856;2023-02-07T02:27:10;14.30;;;6.60;;
5042;SDS011;2540;50.928;6.856;2023-02-07T02:40:01;18.50;;;7.43;;
5042;SDS011;2540;50.928;6.856;2023-02-07T02:45:32;18.10;;;7.40;;
5042;SDS011;2540;50.928;6.856;2023-02-07T02:47:59;12.07;;;7.40;;
5042;SDS011;2540;50.928;6.856;2023-02-07T02:50:27;15.40;;;6.70;;
5042;SDS011;2540;50.928;6.856;2023-02-07T02:52:52;15.70;;;7.93;;
5042;SDS011;2540;50.928;6.856;2023-02-07T02:55:21;17.37;;;7.17;;
5042;SDS011;2540;50.928;6.856;2023-02-07T03:12:43;14.07;;;7.20;;
5042;SDS011;2540;50.928;6.856;2023-02-07T03:15:22;24.23;;;7.97;;
5042;SDS011;2540;50.928;6.856;2023-02-07T03:18:24;19.10;;;6.63;;
5042;SDS011;2540;50.928;6.856;2023-02-07T03:20:44;16.43;;;7.20;;
5042;SDS011;2540;50.928;6.856;2023-02-07T03:23:10;20.73;;;7.50;;
5042;SDS011;2540;50.928;6.856;2023-02-07T03:25:38;19.63;;;7.70;;
5042;SDS011;2540;50.928;6.856;2023-02-07T03:28:05;16.50;;;7.40;;
5042;SDS011;2540;50.928;6.856;2023-02-07T03:30:31;19.93;;;7.20;;
5042;SDS011;2540;50.928;6.856;2023-02-07T03:32:58;14.27;;;7.13;;
5042;SDS011;2540;50.928;6.856;2023-02-07T03:35:27;13.40;;;7.50;;
5042;SDS011;2540;50.928;6.856;2023-02-07T03:37:57;16.17;;;8.50;;
5042;SDS011;2540;50.928;6.856;2023-02-07T03:40:24;16.80;;;6.87;;
5042;SDS011;2540;50.928;6.856;2023-02-07T03:42:52;18.80;;;7.50;;
5042;SDS011;2540;50.928;6.856;2023-02-07T03:45:18;16.20;;;6.73;;
5042;SDS011;2540;50.928;6.856;2023-02-07T03:47:44;15.93;;;7.20;;
5042;SDS011;2540;50.928;6.856;2023-02-07T03:50:09;17.30;;;7.80;;
5042;SDS011;2540;50.928;6.856;2023-02-07T03:52:35;17.40;;;7.80;;
5042;SDS011;2540;50.928;6.856;2023-02-07T03:55:00;15.03;;;7.50;;
5042;SDS011;2540;50.928;6.856;2023-02-07T03:57:25;17.37;;;7.53;;
5042;SDS011;2540;50.928;6.856;2023-02-07T03:59:50;14.63;;;7.63;;
5042;SDS011;2540;50.928;6.856;2023-02-07T04:02:15;21.70;;;8.20;;
5042;SDS011;2540;50.928;6.856;2023-02-07T04:04:41;14.47;;;7.13;;
5042;SDS011;2540;50.928;6.856;2023-02-07T04:07:06;13.40;;;7.63;;
5042;SDS011;2540;50.928;6.856;2023-02-07T04:09:31;16.13;;;7.47;;
5042;SDS011;2540;50.928;6.856;2023-02-07T04:11:56;17.73;;;7.93;;
5042;SDS011;2540;50.928;6.856;2023-02-07T04:14:22;17.23;;;7.30;;
5042;SDS011;2540;50.928;6.856;2023-02-07T04:16:48;15.90;;;7.87;;
5042;SDS011;2540;50.928;6.856;2023-02-07T04:19:13;10.70;;;7.10;;
5042;SDS011;2540;50.928;6.856;2023-02-07T04:21:38;18.77;;;8.17;;
5042;SDS011;2540;50.928;6.856;2023-02-07T04:24:03;14.37;;;7.40;;
5042;SDS011;2540;50.928;6.856;2023-02-07T04:26:29;16.67;;;7.80;;
5042;SDS011;2540;50.928;6.856;2023-02-07T04:28:54;16.50;;;7.60;;
5042;SDS011;2540;50.928;6.856;2023-02-07T04:31:19;15.73;;;7.43;;
5042;SDS011;2540;50.928;6.856;2023-02-07T04:33:44;23.33;;;9.47;;
5042;SDS011;2540;50.928;6.856;2023-02-07T04:36:10;14.93;;;7.90;;
5042;SDS011;2540;50.928;6.856;2023-02-07T04:38:35;13.80;;;7.63;;
5042;SDS011;2540;50.928;6.856;2023-02-07T04:41:01;17.33;;;8.37;;
5042;SDS011;2540;50.928;6.856;2023-02-07T04:43:28;20.90;;;9.10;;
5042;SDS011;2540;50.928;6.856;2023-02-07T04:45:53;12.97;;;7.33;;
5042;SDS011;2540;50.928;6.856;2023-02-07T04:48:18;16.27;;;7.63;;
5042;SDS011;2540;50.928;6.856;2023-02-07T04:50:43;15.30;;;7.77;;
5042;SDS011;2540;50.928;6.856;2023-02-07T04:53:09;17.87;;;8.37;;
5042;SDS011;2540;50.928;6.856;2023-02-07T04:55:34;16.33;;;7.83;;
5042;SDS011;2540;50.928;6.856;2023-02-07T04:58:01;19.43;;;8.30;;
5042;SDS011;2540;50.928;6.856;2023-02-07T05:00:26;19.07;;;8.10;;
5042;SDS011;2540;50.928;6.856;2023-02-07T05:02:51;20.03;;;7.90;;
5042;SDS011;2540;50.928;6.856;2023-02-07T05:05:16;13.00;;;8.00;;
5042;SDS011;2540;50.928;6.856;2023-02-07T05:07:41;15.40;;;6.63;;
5042;SDS011;2540;50.928;6.856;2023-02-07T05:10:07;17.60;;;8.27;;
5042;SDS011;2540;50.928;6.856;2023-02-07T05:12:32;21.77;;;8.00;;
5042;SDS011;2540;50.928;6.856;2023-02-07T05:14:57;16.10;;;7.73;;
5042;SDS011;2540;50.928;6.856;2023-02-07T05:17:22;14.17;;;7.40;;
5042;SDS011;2540;50.928;6.856;2023-02-07T05:19:48;13.40;;;6.77;;
5042;SDS011;2540;50.928;6.856;2023-02-07T05:22:13;13.40;;;7.03;;
5042;SDS011;2540;50.928;6.856;2023-02-07T05:24:38;13.53;;;7.30;;
5042;SDS011;2540;50.928;6.856;2023-02-07T05:27:03;14.47;;;7.90;;
5042;SDS011;2540;50.928;6.856;2023-02-07T05:29:28;19.10;;;6.87;;
5042;SDS011;2540;50.928;6.856;2023-02-07T05:31:54;15.13;;;7.07;;
5042;SDS011;2540;50.928;6.856;2023-02-07T05:34:38;14.80;;;7.17;;
5042;SDS011;2540;50.928;6.856;2023-02-07T05:37:03;17.27;;;7.67;;
5042;SDS011;2540;50.928;6.856;2023-02-07T05:39:28;11.20;;;7.10;;
5042;SDS011;2540;50.928;6.856;2023-02-07T05:41:53;11.53;;;6.97;;
5042;SDS011;2540;50.928;6.856;2023-02-07T05:44:19;15.70;;;7.70;;
5042;SDS011;2540;50.928;6.856;2023-02-07T05:46:44;13.93;;;7.77;;
5042;SDS011;2540;50.928;6.856;2023-02-07T05:49:09;13.00;;;6.67;;
5042;SDS011;2540;50.928;6.856;2023-02-07T05:51:34;13.80;;;7.63;;
5042;SDS011;2540;50.928;6.856;2023-02-07T05:54:00;11.80;;;7.53;;
5042;SDS011;2540;50.928;6.856;2023-02-07T05:56:25;9.90;;;6.73;;
5042;SDS011;2540;50.928;6.856;2023-02-07T05:58:50;11.53;;;6.90;;
5042;SDS011;2540;50.928;6.856;2023-02-07T06:01:15;13.50;;;7.27;;
5042;SDS011;2540;50.928;6.856;2023-02-07T06:03:40;15.00;;;7.30;;
5042;SDS011;2540;50.928;6.856;2023-02-07T06:06:06;14.17;;;7.00;;
5042;SDS011;2540;50.928;6.856;2023-02-07T06:08:31;13.60;;;7.33;;
5042;SDS011;2540;50.928;6.856;2023-02-07T06:10:56;11.57;;;6.67;;
5042;SDS011;2540;50.928;6.856;2023-02-07T06:13:21;15.63;;;6.27;;
5042;SDS011;2540;50.928;6.856;2023-02-07T06:15:46;14.20;;;7.13;;
5042;SDS011;2540;50.928;6.856;2023-02-07T06:18:12;13.63;;;7.37;;
5042;SDS011;2540;50.928;6.856;2023-02-07T06:20:37;16.93;;;7.37;;
5042;SDS011;2540;50.928;6.856;2023-02-07T06:23:02;13.20;;;6.60;;
5042;SDS011;2540;50.928;6.856;2023-02-07T06:25:27;13.33;;;6.43;;
5042;SDS011;2540;50.928;6.856;2023-02-07T06:27:53;13.40;;;6.20;;
5042;SDS011;2540;50.928;6.856;2023-02-07T06:30:18;13.37;;;7.30;;
5042;SDS011;2540;50.928;6.856;2023-02-07T06:32:43;8.63;;;6.00;;
5042;SDS011;2540;50.928;6.856;2023-02-07T06:35:08;11.83;;;5.80;;
5042;SDS011;2540;50.928;6.856;2023-02-07T06:37:34;9.87;;;5.80;;
5042;SDS011;2540;50.928;6.856;2023-02-07T06:39:59;12.27;;;6.77;;
5042;SDS011;2540;50.928;6.856;2023-02-07T06:42:24;10.87;;;6.20;;
5042;SDS011;2540;50.928;6.856;2023-02-07T06:44:49;10.53;;;7.37;;
5042;SDS011;2540;50.928;6.856;2023-02-07T06:47:15;11.57;;;6.37;;
5042;SDS011;2540;50.928;6.856;2023-02-07T06:49:40;12.73;;;6.40;;
5042;SDS011;2540;50.928;6.856;2023-02-07T06:52:06;12.07;;;6.60;;
5042;SDS011;2540;50.928;6.856;2023-02-07T06:54:31;10.20;;;6.40;;
5042;SDS011;2540;50.928;6.856;2023-02-07T06:56:56;14.70;;;7.10;;
5042;SDS011;2540;50.928;6.856;2023-02-07T06:59:21;14.57;;;7.10;;
5042;SDS011;2540;50.928;6.856;2023-02-07T07:01:47;12.03;;;6.80;;
5042;SDS011;2540;50.928;6.856;2023-02-07T07:04:12;7.03;;;5.20;;
5042;SDS011;2540;50.928;6.856;2023-02-07T07:06:37;14.80;;;6.10;;
5042;SDS011;2540;50.928;6.856;2023-02-07T07:09:03;13.60;;;6.00;;
5042;SDS011;2540;50.928;6.856;2023-02-07T07:11:28;9.07;;;5.67;;
5042;SDS011;2540;50.928;6.856;2023-02-07T07:13:53;11.23;;;5.33;;
5042;SDS011;2540;50.928;6.856;2023-02-07T07:16:19;10.43;;;5.40;;
5042;SDS011;2540;50.928;6.856;2023-02-07T07:18:44;13.27;;;5.40;;
5042;SDS011;2540;50.928;6.856;2023-02-07T07:21:10;6.80;;;5.00;;
5042;SDS011;2540;50.928;6.856;2023-02-07T07:23:36;9.37;;;6.43;;
5042;SDS011;2540;50.928;6.856;2023-02-07T07:26:02;11.67;;;5.67;;
5042;SDS011;2540;50.928;6.856;2023-02-07T07:28:27;8.57;;;4.63;;
5042;SDS011;2540;50.928;6.856;2023-02-07T07:30:52;17.00;;;5.13;;
5042;SDS011;2540;50.928;6.856;2023-02-07T07:33:18;13.20;;;5.40;;
5042;SDS011;2540;50.928;6.856;2023-02-07T07:35:43;11.80;;;5.33;;
5042;SDS011;2540;50.928;6.856;2023-02-07T07:38:08;10.17;;;5.30;;
5042;SDS011;2540;50.928;6.856;2023-02-07T07:40:34;11.97;;;5.10;;
5042;SDS011;2540;50.928;6.856;2023-02-07T07:42:59;15.30;;;6.47;;
5042;SDS011;2540;50.928;6.856;2023-02-07T07:45:24;18.23;;;5.80;;
5042;SDS011;2540;50.928;6.856;2023-02-07T07:47:49;15.33;;;7.20;;
5042;SDS011;2540;50.928;6.856;2023-02-07T07:50:15;11.90;;;7.20;;
5042;SDS011;2540;50.928;6.856;2023-02-07T07:52:40;19.90;;;7.40;;
5042;SDS011;2540;50.928;6.856;2023-02-07T07:55:07;12.50;;;6.67;;
5042;SDS011;2540;50.928;6.856;2023-02-07T07:57:32;11.83;;;7.40;;
5042;SDS011;2540;50.928;6.856;2023-02-07T07:59:57;12.47;;;7.13;;
5042;SDS011;2540;50.928;6.856;2023-02-07T08:02:23;17.60;;;6.50;;
5042;SDS011;2540;50.928;6.856;2023-02-07T08:04:48;11.30;;;6.10;;
5042;SDS011;2540;50.928;6.856;2023-02-07T08:07:14;12.70;;;6.27;;
5042;SDS011;2540;50.928;6.856;2023-02-07T08:09:39;14.27;;;6.93;;
5042;SDS011;2540;50.928;6.856;2023-02-07T08:12:04;13.70;;;6.90;;
5042;SDS011;2540;50.928;6.856;2023-02-07T08:14:29;8.57;;;5.43;;
5042;SDS011;2540;50.928;6.856;2023-02-07T08:16:55;12.17;;;5.57;;
5042;SDS011;2540;50.928;6.856;2023-02-07T08:19:20;9.73;;;5.63;;
5042;SDS011;2540;50.928;6.856;2023-02-07T08:21:45;6.87;;;4.90;;
5042;SDS011;2540;50.928;6.856;2023-02-07T08:24:10;6.53;;;4.37;;
5042;SDS011;2540;50.928;6.856;2023-02-07T08:26:36;8.57;;;4.73;;
5042;SDS011;2540;50.928;6.856;2023-02-07T08:29:01;9.00;;;5.70;;
5042;SDS011;2540;50.928;6.856;2023-02-07T08:31:27;11.50;;;4.87;;
5042;SDS011;2540;50.928;6.856;2023-02-07T08:33:52;6.00;;;4.73;;
5042;SDS011;2540;50.928;6.856;2023-02-07T08:36:17;11.00;;;5.53;;
5042;SDS011;2540;50.928;6.856;2023-02-07T08:38:43;8.00;;;4.37;;
5042;SDS011;2540;50.928;6.856;2023-02-07T08:41:08;7.03;;;4.10;;
5042;SDS011;2540;50.928;6.856;2023-02-07T08:43:33;7.80;;;4.47;;
5042;SDS011;2540;50.928;6.856;2023-02-07T08:45:59;5.67;;;4.37;;
5042;SDS011;2540;50.928;6.856;2023-02-07T08:48:24;5.90;;;4.40;;
5042;SDS011;2540;50.928;6.856;2023-02-07T08:50:50;8.37;;;4.43;;
5042;SDS011;2540;50.928;6.856;2023-02-07T08:53:15;6.90;;;3.80;;
5042;SDS011;2540;50.928;6.856;2023-02-07T08:55:40;7.10;;;3.90;;
5042;SDS011;2540;50.928;6.856;2023-02-07T08:58:06;5.03;;;3.93;;
5042;SDS011;2540;50.928;6.856;2023-02-07T09:00:31;7.00;;;4.10;;
5042;SDS011;2540;50.928;6.856;2023-02-07T09:02:59;7.40;;;4.50;;
5042;SDS011;2540;50.928;6.856;2023-02-07T09:05:24;6.80;;;4.23;;
5042;SDS011;2540;50.928;6.856;2023-02-07T09:07:49;6.47;;;4.57;;
5042;SDS011;2540;50.928;6.856;2023-02-07T09:10:15;9.33;;;4.50;;
5042;SDS011;2540;50.928;6.856;2023-02-07T09:12:40;8.87;;;4.20;;
5042;SDS011;2540;50.928;6.856;2023-02-07T09:15:05;7.70;;;4.50;;
5042;SDS011;2540;50.928;6.856;2023-02-07T09:17:30;7.53;;;4.87;;
5042;SDS011;2540;50.928;6.856;2023-02-07T09:19:56;6.63;;;4.10;;
5042;SDS011;2540;50.928;6.856;2023-02-07T09:22:21;6.97;;;4.37;;
5042;SDS011;2540;50.928;6.856;2023-02-07T09:24:46;6.17;;;4.37;;
5042;SDS011;2540;50.928;6.856;2023-02-07T09:27:12;6.60;;;4.10;;
5042;SDS011;2540;50.928;6.856;2023-02-07T09:29:37;6.17;;;4.30;;
5042;SDS011;2540;50.928;6.856;2023-02-07T09:32:02;5.97;;;4.20;;
5042;SDS011;2540;50.928;6.856;2023-02-07T09:34:27;7.47;;;4.73;;
5042;SDS011;2540;50.928;6.856;2023-02-07T09:36:53;9.00;;;4.80;;
5042;SDS011;2540;50.928;6.856;2023-02-07T09:39:18;6.80;;;4.57;;
5042;SDS011;2540;50.928;6.856;2023-02-07T09:41:50;6.13;;;5.47;;
5042;SDS011;2540;50.928;6.856;2023-02-07T09:47:04;7.27;;;5.20;;
5042;SDS011;2540;50.928;6.856;2023-02-07T09:51:56;5.87;;;4.47;;
5042;SDS011;2540;50.928;6.856;2023-02-07T09:54:24;6.00;;;4.83;;
5042;SDS011;2540;50.928;6.856;2023-02-07T09:56:51;7.17;;;5.23;;
5042;SDS011;2540;50.928;6.856;2023-02-07T09:59:26;6.90;;;5.03;;
5042;SDS011;2540;50.928;6.856;2023-02-07T10:01:58;6.40;;;4.57;;
5042;SDS011;2540;50.928;6.856;2023-02-07T10:06:53;6.13;;;4.83;;
5042;SDS011;2540;50.928;6.856;2023-02-07T10:09:23;9.40;;;4.93;;
5042;SDS011;2540;50.928;6.856;2023-02-07T10:14:24;8.80;;;5.70;;
5042;SDS011;2540;50.928;6.856;2023-02-07T10:20:21;8.97;;;4.23;;
5042;SDS011;2540;50.928;6.856;2023-02-07T10:27:08;10.20;;;5.33;;
5042;SDS011;2540;50.928;6.856;2023-02-07T10:32:17;6.37;;;4.73;;
5042;SDS011;2540;50.928;6.856;2023-02-07T10:34:44;9.20;;;4.40;;
5042;SDS011;2540;50.928;6.856;2023-02-07T10:37:21;11.17;;;6.33;;
5042;SDS011;2540;50.928;6.856;2023-02-07T10:39:49;7.50;;;4.60;;
5042;SDS011;2540;50.928;6.856;2023-02-07T10:42:15;7.70;;;5.23;;
5042;SDS011;2540;50.928;6.856;2023-02-07T10:44:41;9.33;;;5.40;;
5042;SDS011;2540;50.928;6.856;2023-02-07T10:47:08;8.23;;;5.00;;
5042;SDS011;2540;50.928;6.856;2023-02-07T10:49:37;7.63;;;4.23;;
5042;SDS011;2540;50.928;6.856;2023-02-07T10:52:10;8.53;;;5.80;;
5042;SDS011;2540;50.928;6.856;2023-02-07T10:54:50;5.57;;;4.33;;
5042;SDS011;2540;50.928;6.856;2023-02-07T10:57:17;10.27;;;4.93;;
5042;SDS011;2540;50.928;6.856;2023-02-07T10:59:43;10.40;;;5.00;;
5042;SDS011;2540;50.928;6.856;2023-02-07T11:02:44;7.43;;;4.83;;
5042;SDS011;2540;50.928;6.856;2023-02-07T11:07:41;7.17;;;4.37;;
5042;SDS011;2540;50.928;6.856;2023-02-07T11:10:14;9.47;;;5.50;;
5042;SDS011;2540;50.928;6.856;2023-02-07T11:12:47;7.40;;;4.30;;
5042;SDS011;2540;50.928;6.856;2023-02-07T11:15:16;6.83;;;4.10;;
5042;SDS011;2540;50.928;6.856;2023-02-07T11:17:52;9.20;;;5.00;;
5042;SDS011;2540;50.928;6.856;2023-02-07T11:20:26;9.23;;;5.00;;
5042;SDS011;2540;50.928;6.856;2023-02-07T11:22:53;7.57;;;3.80;;
5042;SDS011;2540;50.928;6.856;2023-02-07T11:25:25;7.60;;;4.60;;
5042;SDS011;2540;50.928;6.856;2023-02-07T11:27:51;8.70;;;4.50;;
5042;SDS011;2540;50.928;6.856;2023-02-07T11:30:17;6.90;;;4.10;;
5042;SDS011;2540;50.928;6.856;2023-02-07T11:32:44;8.10;;;4.67;;
5042;SDS011;2540;50.928;6.856;2023-02-07T11:35:18;5.83;;;3.90;;
5042;SDS011;2540;50.928;6.856;2023-02-07T11:37:58;7.13;;;4.77;;
5042;SDS011;2540;50.928;6.856;2023-02-07T11:40:26;6.67;;;4.43;;
5042;SDS011;2540;50.928;6.856;2023-02-07T11:43:02;6.33;;;4.30;;
5042;SDS011;2540;50.928;6.856;2023-02-07T11:45:27;6.93;;;4.27;;
5042;SDS011;2540;50.928;6.856;2023-02-07T11:47:55;9.53;;;3.97;;
5042;SDS011;2540;50.928;6.856;2023-02-07T11:50:23;8.53;;;4.37;;
5042;SDS011;2540;50.928;6.856;2023-02-07T11:52:58;11.93;;;4.57;;
5042;SDS011;2540;50.928;6.856;2023-02-07T11:55:25;8.90;;;4.73;;
5042;SDS011;2540;50.928;6.856;2023-02-07T11:57:53;7.30;;;4.37;;
5042;SDS011;2540;50.928;6.856;2023-02-07T12:00:22;7.87;;;4.47;;
5042;SDS011;2540;50.928;6.856;2023-02-07T12:03:13;8.17;;;4.90;;
5042;SDS011;2540;50.928;6.856;2023-02-07T12:05:43;8.00;;;4.60;;
5042;SDS011;2540;50.928;6.856;2023-02-07T12:08:14;8.73;;;5.00;;
5042;SDS011;2540;50.928;6.856;2023-02-07T12:10:41;6.53;;;4.50;;
5042;SDS011;2540;50.928;6.856;2023-02-07T12:13:21;10.03;;;4.70;;
5042;SDS011;2540;50.928;6.856;2023-02-07T12:20:50;6.77;;;4.07;;
5042;SDS011;2540;50.928;6.856;2023-02-07T12:26:05;8.83;;;4.30;;
5042;SDS011;2540;50.928;6.856;2023-02-07T12:30:57;7.30;;;4.60;;
5042;SDS011;2540;50.928;6.856;2023-02-07T12:33:43;8.93;;;4.70;;
5042;SDS011;2540;50.928;6.856;2023-02-07T12:44:56;9.40;;;4.10;;
5042;SDS011;2540;50.928;6.856;2023-02-07T12:59:11;8.00;;;4.70;;
5042;SDS011;2540;50.928;6.856;2023-02-07T13:10:34;4.50;;;3.90;;
5042;SDS011;2540;50.928;6.856;2023-02-07T13:18:57;6.17;;;3.73;;
5042;SDS011;2540;50.928;6.856;2023-02-07T13:24:03;6.00;;;3.63;;
5042;SDS011;2540;50.928;6.856;2023-02-07T13:26:28;4.47;;;3.23;;
5042;SDS011;2540;50.928;6.856;2023-02-07T13:28:56;6.43;;;4.03;;
5042;SDS011;2540;50.928;6.856;2023-02-07T13:34:27;6.37;;;4.10;;
5042;SDS011;2540;50.928;6.856;2023-02-07T13:36:53;6.10;;;4.23;;
5042;SDS011;2540;50.928;6.856;2023-02-07T13:49:57;5.73;;;4.73;;
5042;SDS011;2540;50.928;6.856;2023-02-07T13:57:44;5.83;;;4.30;;
5042;SDS011;2540;50.928;6.856;2023-02-07T14:00:57;5.90;;;4.60;;
5042;SDS011;2540;50.928;6.856;2023-02-07T14:03:20;7.27;;;4.67;;
5042;SDS011;2540;50.928;6.856;2023-02-07T14:05:46;4.70;;;4.20;;
5042;SDS011;2540;50.928;6.856;2023-02-07T14:10:41;9.47;;;5.50;;
5042;SDS011;2540;50.928;6.856;2023-02-07T14:13:50;8.20;;;6.33;;
5042;SDS011;2540;50.928;6.856;2023-02-07T14:16:10;12.07;;;6.90;;
5042;SDS011;2540;50.928;6.856;2023-02-07T14:31:55;7.27;;;5.03;;
5042;SDS011;2540;50.928;6.856;2023-02-07T14:34:21;7.30;;;5.10;;
5042;SDS011;2540;50.928;6.856;2023-02-07T14:36:47;7.63;;;5.23;;
5042;SDS011;2540;50.928;6.856;2023-02-07T14:41:38;8.80;;;5.90;;
5042;SDS011;2540;50.928;6.856;2023-02-07T14:44:05;22.67;;;13.53;;
5042;SDS011;2540;50.928;6.856;2023-02-07T14:46:31;13.03;;;8.37;;
5042;SDS011;2540;50.928;6.856;2023-02-07T14:48:59;12.33;;;7.43;;
5042;SDS011;2540;50.928;6.856;2023-02-07T14:51:45;6.67;;;5.10;;
5042;SDS011;2540;50.928;6.856;2023-02-07T14:54:16;6.63;;;4.97;;
5042;SDS011;2540;50.928;6.856;2023-02-07T14:59:29;8.30;;;4.97;;
5042;SDS011;2540;50.928;6.856;2023-02-07T15:02:17;5.73;;;4.10;;
5042;SDS011;2540;50.928;6.856;2023-02-07T15:04:42;7.80;;;5.10;;
5042;SDS011;2540;50.928;6.856;2023-02-07T15:07:09;7.90;;;5.40;;
5042;SDS011;2540;50.928;6.856;2023-02-07T15:09:36;5.57;;;4.47;;
5042;SDS011;2540;50.928;6.856;2023-02-07T15:12:03;4.90;;;4.00;;
5042;SDS011;2540;50.928;6.856;2023-02-07T15:14:30;7.43;;;5.43;;
5042;SDS011;2540;50.928;6.856;2023-02-07T15:16:57;12.80;;;5.70;;
5042;SDS011;2540;50.928;6.856;2023-02-07T15:19:27;8.70;;;6.17;;
5042;SDS011;2540;50.928;6.856;2023-02-07T15:21:54;6.00;;;4.23;;
5042;SDS011;2540;50.928;6.856;2023-02-07T15:26:54;5.93;;;4.17;;
5042;SDS011;2540;50.928;6.856;2023-02-07T15:29:24;5.53;;;3.53;;
5042;SDS011;2540;50.928;6.856;2023-02-07T15:31:50;6.80;;;3.80;;
5042;SDS011;2540;50.928;6.856;2023-02-07T15:34:19;8.80;;;5.07;;
5042;SDS011;2540;50.928;6.856;2023-02-07T15:36:46;8.10;;;5.00;;
5042;SDS011;2540;50.928;6.856;2023-02-07T15:39:16;7.43;;;4.73;;
5042;SDS011;2540;50.928;6.856;2023-02-07T15:41:44;5.90;;;3.90;;
5042;SDS011;2540;50.928;6.856;2023-02-07T15:44:29;5.83;;;4.50;;
5042;SDS011;2540;50.928;6.856;2023-02-07T15:46:56;5.57;;;3.80;;
5042;SDS011;2540;50.928;6.856;2023-02-07T15:54:43;11.17;;;4.50;;
5042;SDS011;2540;50.928;6.856;2023-02-07T15:57:17;5.20;;;3.53;;
5042;SDS011;2540;50.928;6.856;2023-02-07T15:59:47;7.07;;;3.23;;
5042;SDS011;2540;50.928;6.856;2023-02-07T16:02:18;7.40;;;3.40;;
5042;SDS011;2540;50.928;6.856;2023-02-07T16:04:44;7.33;;;3.63;;
5042;SDS011;2540;50.928;6.856;2023-02-07T16:07:11;8.10;;;4.50;;
5042;SDS011;2540;50.928;6.856;2023-02-07T16:12:20;6.87;;;3.60;;
5042;SDS011;2540;50.928;6.856;2023-02-07T16:14:45;6.93;;;3.20;;
5042;SDS011;2540;50.928;6.856;2023-02-07T16:17:20;4.67;;;3.40;;
5042;SDS011;2540;50.928;6.856;2023-02-07T16:19:46;7.20;;;4.13;;
5042;SDS011;2540;50.928;6.856;2023-02-07T16:22:12;5.50;;;3.80;;
5042;SDS011;2540;50.928;6.856;2023-02-07T16:24:39;5.40;;;3.47;;
5042;SDS011;2540;50.928;6.856;2023-02-07T16:27:06;6.10;;;3.50;;
5042;SDS011;2540;50.928;6.856;2023-02-07T16:29:32;7.40;;;3.83;;
5042;SDS011;2540;50.928;6.856;2023-02-07T16:31:58;4.93;;;3.90;;
5042;SDS011;2540;50.928;6.856;2023-02-07T16:34:23;7.77;;;3.67;;
5042;SDS011;2540;50.928;6.856;2023-02-07T16:36:49;4.83;;;3.83;;
5042;SDS011;2540;50.928;6.856;2023-02-07T16:39:15;6.10;;;4.37;;
5042;SDS011;2540;50.928;6.856;2023-02-07T16:41:42;6.70;;;4.30;;
5042;SDS011;2540;50.928;6.856;2023-02-07T16:44:18;9.90;;;4.43;;
5042;SDS011;2540;50.928;6.856;2023-02-07T16:46:43;5.67;;;3.97;;
5042;SDS011;2540;50.928;6.856;2023-02-07T16:49:30;6.93;;;4.50;;
5042;SDS011;2540;50.928;6.856;2023-02-07T16:51:54;8.43;;;4.40;;
5042;SDS011;2540;50.928;6.856;2023-02-07T16:54:19;9.50;;;4.20;;
5042;SDS011;2540;50.928;6.856;2023-02-07T16:56:45;7.17;;;4.80;;
5042;SDS011;2540;50.928;6.856;2023-02-07T16:59:15;7.87;;;4.60;;
5042;SDS011;2540;50.928;6.856;2023-02-07T17:01:45;6.80;;;4.17;;
5042;SDS011;2540;50.928;6.856;2023-02-07T17:04:10;7.87;;;4.60;;
5042;SDS011;2540;50.928;6.856;2023-02-07T17:06:36;8.20;;;4.10;;
5042;SDS011;2540;50.928;6.856;2023-02-07T17:09:01;6.40;;;3.90;;
5042;SDS011;2540;50.928;6.856;2023-02-07T17:11:26;5.80;;;4.23;;
5042;SDS011;2540;50.928;6.856;2023-02-07T17:13:52;8.10;;;3.97;;
5042;SDS011;2540;50.928;6.856;2023-02-07T17:16:17;9.13;;;3.73;;
5042;SDS011;2540;50.928;6.856;2023-02-07T17:18:42;5.00;;;3.40;;
5042;SDS011;2540;50.928;6.856;2023-02-07T17:21:08;3.80;;;2.97;;
5042;SDS011;2540;50.928;6.856;2023-02-07T17:23:35;4.40;;;3.00;;
5042;SDS011;2540;50.928;6.856;2023-02-07T17:26:01;7.23;;;2.80;;
5042;SDS011;2540;50.928;6.856;2023-02-07T17:28:26;5.43;;;3.90;;
5042;SDS011;2540;50.928;6.856;2023-02-07T17:30:51;4.50;;;3.70;;
5042;SDS011;2540;50.928;6.856;2023-02-07T17:33:18;5.67;;;3.83;;
5042;SDS011;2540;50.928;6.856;2023-02-07T17:35:43;12.60;;;4.07;;
5042;SDS011;2540;50.928;6.856;2023-02-07T17:38:08;8.90;;;3.93;;
5042;SDS011;2540;50.928;6.856;2023-02-07T17:40:35;8.40;;;3.90;;
5042;SDS011;2540;50.928;6.856;2023-02-07T17:43:01;5.67;;;3.57;;
5042;SDS011;2540;50.928;6.856;2023-02-07T17:45:26;9.83;;;3.90;;
5042;SDS011;2540;50.928;6.856;2023-02-07T17:47:52;4.97;;;3.43;;
5042;SDS011;2540;50.928;6.856;2023-02-07T17:50:18;9.00;;;3.33;;
5042;SDS011;2540;50.928;6.856;2023-02-07T17:52:44;7.97;;;4.40;;